sensor_id;sensor_type;location;lat;lon;timestamp;temperature;humidity
68813;DHT22;55808;48.112;11.552;2022-10-16T00:00:35;12.60;99.90
68813;DHT22;55808;48.112;11.552;2022-10-16T00:03:02;12.60;99.90
68813;DHT22;55808;48.112;11.552;2022-10-16T00:05:29;12.50;99.90
68813;DHT22;55808;48.112;11.552;2022-10-16T00:07:55;12.50;99.90
68813;DHT22;55808;48.112;11.552;2022-10-16T00:10:21;12.40;99.90
68813;DHT22;55808;48.112;11.552;2022-10-16T00:12:46;12.40;99.90
68813;DHT22;55808;48.112;11.552;2022-10-16T00:15:12;12.40;99.90
68813;DHT22;55808;48.112;11.552;2022-10-16T00:17:39;12.50;99.90
68813;DHT22;55808;48.112;11.552;2022-10-16T00:20:05;12.40;99.90
68813;DHT22;55808;48.112;11.552;2022-10-16T00:22:31;12.40;99.90
68813;DHT22;55808;48.112;11.552;2022-10-16T00:24:57;12.50;99.90
68813;DHT22;55808;48.112;11.552;2022-10-16T00:27:23;12.40;99.90
68813;DHT22;55808;48.112;11.552;2022-10-16T00:29:52;12.40;99.90
68813;DHT22;55808;48.112;11.552;2022-10-16T00:32:19;12.30;99.90
68813;DHT22;55808;48.112;11.552;2022-10-16T00:34:45;12.30;99.90
68813;DHT22;55808;48.112;11.552;2022-10-16T00:37:11;12.30;99.90
68813;DHT22;55808;48.112;11.552;2022-10-16T00:39:37;12.30;99.90
68813;DHT22;55808;48.112;11.552;2022-10-16T00:42:03;12.20;99.90
68813;DHT22;55808;48.112;11.552;2022-10-16T00:44:42;12.30;99.90
68813;DHT22;55808;48.112;11.552;2022-10-16T00:47:20;12.20;99.90
68813;DHT22;55808;48.112;11.552;2022-10-16T00:49:50;12.30;99.90
68813;DHT22;55808;48.112;11.552;2022-10-16T00:52:16;12.30;99.90
68813;DHT22;55808;48.112;11.552;2022-10-16T00:54:42;12.30;99.90
68813;DHT22;55808;48.112;11.552;2022-10-16T00:57:08;12.30;99.90
68813;DHT22;55808;48.112;11.552;2022-10-16T00:59:36;12.30;99.90
68813;DHT22;55808;48.112;11.552;2022-10-16T01:02:05;12.30;99.90
68813;DHT22;55808;48.112;11.552;2022-10-16T01:04:38;12.30;99.90
68813;DHT22;55808;48.112;11.552;2022-10-16T01:12:10;12.40;99.90
68813;DHT22;55808;48.112;11.552;2022-10-16T01:22:38;12.40;99.90
68813;DHT22;55808;48.112;11.552;2022-10-16T01:25:09;12.50;99.90
68813;DHT22;55808;48.112;11.552;2022-10-16T01:27:40;12.40;99.90
68813;DHT22;55808;48.112;11.552;2022-10-16T01:30:18;12.40;99.90
68813;DHT22;55808;48.112;11.552;2022-10-16T01:35:34;12.30;99.90
68813;DHT22;55808;48.112;11.552;2022-10-16T01:40:38;12.20;99.90
68813;DHT22;55808;48.112;11.552;2022-10-16T01:43:27;12.20;99.90
68813;DHT22;55808;48.112;11.552;2022-10-16T01:45:54;12.20;99.90
68813;DHT22;55808;48.112;11.552;2022-10-16T01:48:21;12.30;99.90
68813;DHT22;55808;48.112;11.552;2022-10-16T01:51:03;12.30;99.90
68813;DHT22;55808;48.112;11.552;2022-10-16T01:53:31;12.30;99.90
68813;DHT22;55808;48.112;11.552;2022-10-16T01:55:58;12.30;99.90
68813;DHT22;55808;48.112;11.552;2022-10-16T01:58:26;12.20;99.90
68813;DHT22;55808;48.112;11.552;2022-10-16T02:00:54;12.20;99.90
68813;DHT22;55808;48.112;11.552;2022-10-16T02:03:20;12.20;99.90
68813;DHT22;55808;48.112;11.552;2022-10-16T02:05:55;12.10;99.90
68813;DHT22;55808;48.112;11.552;2022-10-16T02:08:24;12.20;99.90
68813;DHT22;55808;48.112;11.552;2022-10-16T02:10:51;12.20;99.90
68813;DHT22;55808;48.112;11.552;2022-10-16T02:13:26;12.20;99.90
68813;DHT22;55808;48.112;11.552;2022-10-16T02:15:53;12.30;99.90
68813;DHT22;55808;48.112;11.552;2022-10-16T02:18:19;12.30;99.90
68813;DHT22;55808;48.112;11.552;2022-10-16T02:20:55;12.30;99.90
68813;DHT22;55808;48.112;11.552;2022-10-16T02:23:34;12.30;99.90
68813;DHT22;55808;48.112;11.552;2022-10-16T02:26:04;12.30;99.90
68813;DHT22;55808;48.112;11.552;2022-10-16T02:28:42;12.30;99.90
68813;DHT22;55808;48.112;11.552;2022-10-16T02:31:11;12.30;99.90
68813;DHT22;55808;48.112;11.552;2022-10-16T02:33:40;12.30;99.90
68813;DHT22;55808;48.112;11.552;2022-10-16T02:36:07;12.30;99.90
68813;DHT22;55808;48.112;11.552;2022-10-16T02:38:34;12.30;99.90
68813;DHT22;55808;48.112;11.552;2022-10-16T02:41:00;12.30;99.90
68813;DHT22;55808;48.112;11.552;2022-10-16T02:43:25;12.30;99.90
68813;DHT22;55808;48.112;11.552;2022-10-16T02:45:51;12.30;99.90
68813;DHT22;55808;48.112;11.552;2022-10-16T02:48:17;12.30;99.90
68813;DHT22;55808;48.112;11.552;2022-10-16T02:50:42;12.30;99.90
68813;DHT22;55808;48.112;11.552;2022-10-16T02:53:08;12.30;99.90
68813;DHT22;55808;48.112;11.552;2022-10-16T02:55:34;12.30;99.90
68813;DHT22;55808;48.112;11.552;2022-10-16T02:57:59;12.30;99.90
68813;DHT22;55808;48.112;11.552;2022-10-16T03:00:25;12.30;99.90
68813;DHT22;55808;48.112;11.552;2022-10-16T03:02:51;12.30;99.90
68813;DHT22;55808;48.112;11.552;2022-10-16T03:05:16;12.20;99.90
68813;DHT22;55808;48.112;11.552;2022-10-16T03:07:42;12.20;99.90
68813;DHT22;55808;48.112;11.552;2022-10-16T03:10:08;12.10;99.90
68813;DHT22;55808;48.112;11.552;2022-10-16T03:12:34;12.10;99.90
68813;DHT22;55808;48.112;11.552;2022-10-16T03:15:00;12.00;99.90
68813;DHT22;55808;48.112;11.552;2022-10-16T03:17:26;12.00;99.90
68813;DHT22;55808;48.112;11.552;2022-10-16T03:19:51;12.00;99.90
68813;DHT22;55808;48.112;11.552;2022-10-16T03:22:17;12.00;99.90
68813;DHT22;55808;48.112;11.552;2022-10-16T03:24:43;12.00;99.90
68813;DHT22;55808;48.112;11.552;2022-10-16T03:27:08;12.00;99.90
68813;DHT22;55808;48.112;11.552;2022-10-16T03:29:34;12.00;99.90
68813;DHT22;55808;48.112;11.552;2022-10-16T03:32:00;12.10;99.90
68813;DHT22;55808;48.112;11.552;2022-10-16T03:34:26;12.10;99.90
68813;DHT22;55808;48.112;11.552;2022-10-16T03:36:51;12.10;99.90
68813;DHT22;55808;48.112;11.552;2022-10-16T03:39:18;12.10;99.90
68813;DHT22;55808;48.112;11.552;2022-10-16T03:41:43;12.10;99.90
68813;DHT22;55808;48.112;11.552;2022-10-16T03:44:09;12.10;99.90
68813;DHT22;55808;48.112;11.552;2022-10-16T03:46:34;12.20;99.90
68813;DHT22;55808;48.112;11.552;2022-10-16T03:49:00;12.20;99.90
68813;DHT22;55808;48.112;11.552;2022-10-16T03:51:26;12.30;99.90
68813;DHT22;55808;48.112;11.552;2022-10-16T03:53:51;12.40;99.90
68813;DHT22;55808;48.112;11.552;2022-10-16T03:56:17;12.40;99.90
68813;DHT22;55808;48.112;11.552;2022-10-16T03:58:43;12.50;99.90
68813;DHT22;55808;48.112;11.552;2022-10-16T04:01:08;12.50;99.90
68813;DHT22;55808;48.112;11.552;2022-10-16T04:03:34;12.50;99.90
68813;DHT22;55808;48.112;11.552;2022-10-16T04:06:00;12.50;99.90
68813;DHT22;55808;48.112;11.552;2022-10-16T04:08:25;12.50;99.90
68813;DHT22;55808;48.112;11.552;2022-10-16T04:10:51;12.50;99.90
68813;DHT22;55808;48.112;11.552;2022-10-16T04:13:16;12.50;99.90
68813;DHT22;55808;48.112;11.552;2022-10-16T04:15:44;12.50;99.90
68813;DHT22;55808;48.112;11.552;2022-10-16T04:18:09;12.60;99.90
68813;DHT22;55808;48.112;11.552;2022-10-16T04:20:35;12.50;99.90
68813;DHT22;55808;48.112;11.552;2022-10-16T04:23:01;12.60;99.90
68813;DHT22;55808;48.112;11.552;2022-10-16T04:25:26;12.60;99.90
68813;DHT22;55808;48.112;11.552;2022-10-16T04:27:55;12.60;99.90
68813;DHT22;55808;48.112;11.552;2022-10-16T04:30:21;12.60;99.90
68813;DHT22;55808;48.112;11.552;2022-10-16T04:32:50;12.60;99.90
68813;DHT22;55808;48.112;11.552;2022-10-16T04:35:20;12.60;99.90
68813;DHT22;55808;48.112;11.552;2022-10-16T04:37:46;12.60;99.90
68813;DHT22;55808;48.112;11.552;2022-10-16T04:40:12;12.50;99.90
68813;DHT22;55808;48.112;11.552;2022-10-16T04:42:38;12.50;99.90
68813;DHT22;55808;48.112;11.552;2022-10-16T04:45:05;12.50;99.90
68813;DHT22;55808;48.112;11.552;2022-10-16T04:47:31;12.50;99.90
68813;DHT22;55808;48.112;11.552;2022-10-16T04:49:56;12.50;99.90
68813;DHT22;55808;48.112;11.552;2022-10-16T04:52:22;12.50;99.90
68813;DHT22;55808;48.112;11.552;2022-10-16T04:54:50;12.50;99.90
68813;DHT22;55808;48.112;11.552;2022-10-16T04:57:16;12.50;99.90
68813;DHT22;55808;48.112;11.552;2022-10-16T04:59:42;12.50;99.90
68813;DHT22;55808;48.112;11.552;2022-10-16T05:02:08;12.60;99.90
68813;DHT22;55808;48.112;11.552;2022-10-16T05:04:33;12.60;99.90
68813;DHT22;55808;48.112;11.552;2022-10-16T05:06:59;12.60;99.90
68813;DHT22;55808;48.112;11.552;2022-10-16T05:09:25;12.50;99.90
68813;DHT22;55808;48.112;11.552;2022-10-16T05:11:50;12.60;99.90
68813;DHT22;55808;48.112;11.552;2022-10-16T05:14:16;12.60;99.90
68813;DHT22;55808;48.112;11.552;2022-10-16T05:16:41;12.50;99.90
68813;DHT22;55808;48.112;11.552;2022-10-16T05:19:07;12.60;99.90
68813;DHT22;55808;48.112;11.552;2022-10-16T05:21:33;12.60;99.90
68813;DHT22;55808;48.112;11.552;2022-10-16T05:23:58;12.60;99.90
68813;DHT22;55808;48.112;11.552;2022-10-16T05:26:24;12.60;99.90
68813;DHT22;55808;48.112;11.552;2022-10-16T05:28:50;12.70;99.90
68813;DHT22;55808;48.112;11.552;2022-10-16T05:31:15;12.70;99.90
68813;DHT22;55808;48.112;11.552;2022-10-16T05:33:41;12.70;99.90
68813;DHT22;55808;48.112;11.552;2022-10-16T05:36:09;12.70;99.90
68813;DHT22;55808;48.112;11.552;2022-10-16T05:38:35;12.70;99.90
68813;DHT22;55808;48.112;11.552;2022-10-16T05:41:02;12.70;99.90
68813;DHT22;55808;48.112;11.552;2022-10-16T05:43:28;12.70;99.90
68813;DHT22;55808;48.112;11.552;2022-10-16T05:46:01;12.70;99.90
68813;DHT22;55808;48.112;11.552;2022-10-16T05:48:28;12.60;99.90
68813;DHT22;55808;48.112;11.552;2022-10-16T05:51:04;12.60;99.90
68813;DHT22;55808;48.112;11.552;2022-10-16T05:53:32;12.50;99.90
68813;DHT22;55808;48.112;11.552;2022-10-16T05:55:58;12.50;99.90
68813;DHT22;55808;48.112;11.552;2022-10-16T05:58:28;12.50;99.90
68813;DHT22;55808;48.112;11.552;2022-10-16T06:01:04;12.50;99.90
68813;DHT22;55808;48.112;11.552;2022-10-16T06:03:30;12.40;99.90
68813;DHT22;55808;48.112;11.552;2022-10-16T06:05:55;12.40;99.90
68813;DHT22;55808;48.112;11.552;2022-10-16T06:08:22;12.40;99.90
68813;DHT22;55808;48.112;11.552;2022-10-16T06:10:49;12.50;99.90
68813;DHT22;55808;48.112;11.552;2022-10-16T06:13:25;12.50;99.90
68813;DHT22;55808;48.112;11.552;2022-10-16T06:15:50;12.50;99.90
68813;DHT22;55808;48.112;11.552;2022-10-16T06:18:16;12.50;99.90
68813;DHT22;55808;48.112;11.552;2022-10-16T06:20:41;12.50;99.90
68813;DHT22;55808;48.112;11.552;2022-10-16T06:23:07;12.50;99.90
68813;DHT22;55808;48.112;11.552;2022-10-16T06:25:33;12.50;99.90
68813;DHT22;55808;48.112;11.552;2022-10-16T06:27:59;12.60;99.90
68813;DHT22;55808;48.112;11.552;2022-10-16T06:30:25;12.60;99.90
68813;DHT22;55808;48.112;11.552;2022-10-16T06:32:50;12.60;99.90
68813;DHT22;55808;48.112;11.552;2022-10-16T06:35:16;12.70;99.90
68813;DHT22;55808;48.112;11.552;2022-10-16T06:37:42;12.70;99.90
68813;DHT22;55808;48.112;11.552;2022-10-16T06:40:07;12.80;99.90
68813;DHT22;55808;48.112;11.552;2022-10-16T06:42:33;12.80;99.90
68813;DHT22;55808;48.112;11.552;2022-10-16T06:44:59;12.80;99.90
68813;DHT22;55808;48.112;11.552;2022-10-16T06:47:24;12.80;99.90
68813;DHT22;55808;48.112;11.552;2022-10-16T06:49:50;12.80;99.90
68813;DHT22;55808;48.112;11.552;2022-10-16T06:52:18;12.80;99.90
68813;DHT22;55808;48.112;11.552;2022-10-16T06:54:44;12.80;99.90
68813;DHT22;55808;48.112;11.552;2022-10-16T06:57:10;12.80;99.90
68813;DHT22;55808;48.112;11.552;2022-10-16T06:59:35;12.80;99.90
68813;DHT22;55808;48.112;11.552;2022-10-16T07:02:01;12.80;99.90
68813;DHT22;55808;48.112;11.552;2022-10-16T07:04:26;12.80;99.90
68813;DHT22;55808;48.112;11.552;2022-10-16T07:06:52;12.80;99.90
68813;DHT22;55808;48.112;11.552;2022-10-16T07:09:17;12.80;99.90
68813;DHT22;55808;48.112;11.552;2022-10-16T07:11:43;12.80;99.90
68813;DHT22;55808;48.112;11.552;2022-10-16T07:14:19;12.90;99.90
68813;DHT22;55808;48.112;11.552;2022-10-16T07:16:46;12.80;99.90
68813;DHT22;55808;48.112;11.552;2022-10-16T07:19:13;12.90;99.90
68813;DHT22;55808;48.112;11.552;2022-10-16T07:21:41;12.90;99.90
68813;DHT22;55808;48.112;11.552;2022-10-16T07:24:11;13.00;99.90
68813;DHT22;55808;48.112;11.552;2022-10-16T07:26:38;13.00;99.90
68813;DHT22;55808;48.112;11.552;2022-10-16T07:29:13;13.20;99.90
68813;DHT22;55808;48.112;11.552;2022-10-16T07:31:39;13.40;99.90
68813;DHT22;55808;48.112;11.552;2022-10-16T07:34:05;13.40;99.90
68813;DHT22;55808;48.112;11.552;2022-10-16T07:36:31;13.50;99.90
68813;DHT22;55808;48.112;11.552;2022-10-16T07:38:57;13.70;99.90
68813;DHT22;55808;48.112;11.552;2022-10-16T07:41:22;13.70;99.90
68813;DHT22;55808;48.112;11.552;2022-10-16T07:43:50;13.90;99.90
68813;DHT22;55808;48.112;11.552;2022-10-16T07:46:18;14.00;99.90
68813;DHT22;55808;48.112;11.552;2022-10-16T07:48:44;14.10;99.90
68813;DHT22;55808;48.112;11.552;2022-10-16T07:51:13;14.40;99.90
68813;DHT22;55808;48.112;11.552;2022-10-16T07:53:39;14.60;99.90
68813;DHT22;55808;48.112;11.552;2022-10-16T07:56:06;14.50;99.90
68813;DHT22;55808;48.112;11.552;2022-10-16T07:58:33;14.80;99.90
68813;DHT22;55808;48.112;11.552;2022-10-16T08:01:04;15.00;99.90
68813;DHT22;55808;48.112;11.552;2022-10-16T08:03:30;15.00;99.90
68813;DHT22;55808;48.112;11.552;2022-10-16T08:05:57;15.00;99.90
68813;DHT22;55808;48.112;11.552;2022-10-16T08:08:22;15.20;99.90
68813;DHT22;55808;48.112;11.552;2022-10-16T08:10:48;15.30;99.90
68813;DHT22;55808;48.112;11.552;2022-10-16T08:13:14;15.40;99.90
68813;DHT22;55808;48.112;11.552;2022-10-16T08:15:44;15.70;99.90
68813;DHT22;55808;48.112;11.552;2022-10-16T08:18:11;15.60;99.90
68813;DHT22;55808;48.112;11.552;2022-10-16T08:20:37;15.50;99.90
68813;DHT22;55808;48.112;11.552;2022-10-16T08:23:03;15.80;99.90
68813;DHT22;55808;48.112;11.552;2022-10-16T08:25:29;15.80;99.90
68813;DHT22;55808;48.112;11.552;2022-10-16T08:27:55;15.80;99.90
68813;DHT22;55808;48.112;11.552;2022-10-16T08:30:22;15.90;99.90
68813;DHT22;55808;48.112;11.552;2022-10-16T08:32:48;16.00;99.90
68813;DHT22;55808;48.112;11.552;2022-10-16T08:35:14;16.00;99.90
68813;DHT22;55808;48.112;11.552;2022-10-16T08:37:40;16.00;99.90
68813;DHT22;55808;48.112;11.552;2022-10-16T08:40:11;16.00;99.90
68813;DHT22;55808;48.112;11.552;2022-10-16T08:48:46;16.00;99.90
68813;DHT22;55808;48.112;11.552;2022-10-16T08:51:21;16.10;99.90
68813;DHT22;55808;48.112;11.552;2022-10-16T08:53:54;16.30;99.90
68813;DHT22;55808;48.112;11.552;2022-10-16T08:56:21;16.60;99.90
68813;DHT22;55808;48.112;11.552;2022-10-16T08:58:48;16.30;99.90
68813;DHT22;55808;48.112;11.552;2022-10-16T09:01:16;16.50;99.90
68813;DHT22;55808;48.112;11.552;2022-10-16T09:06:46;16.60;99.90
68813;DHT22;55808;48.112;11.552;2022-10-16T09:14:50;16.80;99.90
68813;DHT22;55808;48.112;11.552;2022-10-16T09:23:47;17.30;99.90
68813;DHT22;55808;48.112;11.552;2022-10-16T09:25:55;17.40;99.90
68813;DHT22;55808;48.112;11.552;2022-10-16T09:28:21;17.40;99.90
68813;DHT22;55808;48.112;11.552;2022-10-16T09:30:47;17.60;99.50
68813;DHT22;55808;48.112;11.552;2022-10-16T09:33:18;17.70;98.60
68813;DHT22;55808;48.112;11.552;2022-10-16T09:35:49;17.90;98.40
68813;DHT22;55808;48.112;11.552;2022-10-16T09:38:27;17.80;98.00
68813;DHT22;55808;48.112;11.552;2022-10-16T09:40:55;17.70;98.50
68813;DHT22;55808;48.112;11.552;2022-10-16T09:46:31;17.90;96.30
68813;DHT22;55808;48.112;11.552;2022-10-16T09:49:00;18.10;96.20
68813;DHT22;55808;48.112;11.552;2022-10-16T09:51:32;18.00;96.40
68813;DHT22;55808;48.112;11.552;2022-10-16T09:56:37;18.00;96.50
68813;DHT22;55808;48.112;11.552;2022-10-16T10:01:48;18.10;96.20
68813;DHT22;55808;48.112;11.552;2022-10-16T10:04:15;18.40;95.40
68813;DHT22;55808;48.112;11.552;2022-10-16T10:06:45;18.40;95.30
68813;DHT22;55808;48.112;11.552;2022-10-16T10:09:19;18.50;95.60
68813;DHT22;55808;48.112;11.552;2022-10-16T10:11:52;18.60;94.90
68813;DHT22;55808;48.112;11.552;2022-10-16T10:14:36;18.70;94.80
68813;DHT22;55808;48.112;11.552;2022-10-16T10:22:25;18.80;93.90
68813;DHT22;55808;48.112;11.552;2022-10-16T10:35:30;19.40;91.40
68813;DHT22;55808;48.112;11.552;2022-10-16T10:38:00;19.50;91.20
68813;DHT22;55808;48.112;11.552;2022-10-16T10:46:16;20.60;88.40
68813;DHT22;55808;48.112;11.552;2022-10-16T10:54:38;23.30;79.80
68813;DHT22;55808;48.112;11.552;2022-10-16T10:57:29;24.10;76.50
68813;DHT22;55808;48.112;11.552;2022-10-16T11:00:10;24.60;71.50
68813;DHT22;55808;48.112;11.552;2022-10-16T11:02:51;24.70;71.60
68813;DHT22;55808;48.112;11.552;2022-10-16T11:06:05;25.50;70.70
68813;DHT22;55808;48.112;11.552;2022-10-16T11:08:41;25.60;68.50
68813;DHT22;55808;48.112;11.552;2022-10-16T11:11:23;26.00;67.50
68813;DHT22;55808;48.112;11.552;2022-10-16T11:30:29;26.80;59.20
68813;DHT22;55808;48.112;11.552;2022-10-16T11:41:39;26.60;57.10
68813;DHT22;55808;48.112;11.552;2022-10-16T11:46:47;27.50;55.70
68813;DHT22;55808;48.112;11.552;2022-10-16T11:49:16;27.70;54.70
68813;DHT22;55808;48.112;11.552;2022-10-16T11:52:36;27.40;52.80
68813;DHT22;55808;48.112;11.552;2022-10-16T11:54:59;27.00;52.80
68813;DHT22;55808;48.112;11.552;2022-10-16T11:57:31;28.00;51.10
68813;DHT22;55808;48.112;11.552;2022-10-16T12:00:05;28.70;49.40
68813;DHT22;55808;48.112;11.552;2022-10-16T12:02:56;28.90;47.60
68813;DHT22;55808;48.112;11.552;2022-10-16T12:10:29;28.50;48.90
68813;DHT22;55808;48.112;11.552;2022-10-16T12:12:57;28.50;48.70
68813;DHT22;55808;48.112;11.552;2022-10-16T12:17:49;27.40;49.40
68813;DHT22;55808;48.112;11.552;2022-10-16T12:20:38;26.80;50.70
68813;DHT22;55808;48.112;11.552;2022-10-16T12:23:20;26.90;52.30
68813;DHT22;55808;48.112;11.552;2022-10-16T12:26:00;27.60;51.80
68813;DHT22;55808;48.112;11.552;2022-10-16T12:28:31;28.50;49.00
68813;DHT22;55808;48.112;11.552;2022-10-16T12:31:06;29.20;49.60
68813;DHT22;55808;48.112;11.552;2022-10-16T12:33:41;29.60;50.10
68813;DHT22;55808;48.112;11.552;2022-10-16T12:36:16;28.00;49.00
68813;DHT22;55808;48.112;11.552;2022-10-16T12:38:52;27.60;49.20
68813;DHT22;55808;48.112;11.552;2022-10-16T12:43:52;27.80;49.80
68813;DHT22;55808;48.112;11.552;2022-10-16T12:48:44;28.20;48.70
68813;DHT22;55808;48.112;11.552;2022-10-16T12:51:21;28.10;49.80
68813;DHT22;55808;48.112;11.552;2022-10-16T12:56:51;28.20;49.50
68813;DHT22;55808;48.112;11.552;2022-10-16T12:59:29;28.40;50.30
68813;DHT22;55808;48.112;11.552;2022-10-16T13:10:40;28.60;52.70
68813;DHT22;55808;48.112;11.552;2022-10-16T13:13:40;28.00;51.80
68813;DHT22;55808;48.112;11.552;2022-10-16T13:16:25;28.00;53.30
68813;DHT22;55808;48.112;11.552;2022-10-16T13:24:23;27.60;50.80
68813;DHT22;55808;48.112;11.552;2022-10-16T13:27:15;27.60;53.30
68813;DHT22;55808;48.112;11.552;2022-10-16T13:29:43;27.90;53.10
68813;DHT22;55808;48.112;11.552;2022-10-16T13:32:11;27.50;52.20
68813;DHT22;55808;48.112;11.552;2022-10-16T13:34:46;27.00;52.00
68813;DHT22;55808;48.112;11.552;2022-10-16T13:37:19;27.00;54.70
68813;DHT22;55808;48.112;11.552;2022-10-16T13:39:47;26.50;53.30
68813;DHT22;55808;48.112;11.552;2022-10-16T13:42:26;26.50;54.80
68813;DHT22;55808;48.112;11.552;2022-10-16T13:44:54;26.40;55.40
68813;DHT22;55808;48.112;11.552;2022-10-16T13:47:24;26.10;54.70
68813;DHT22;55808;48.112;11.552;2022-10-16T13:52:26;26.20;55.20
68813;DHT22;55808;48.112;11.552;2022-10-16T13:54:51;26.40;54.40
68813;DHT22;55808;48.112;11.552;2022-10-16T13:57:17;26.30;56.00
68813;DHT22;55808;48.112;11.552;2022-10-16T13:59:43;25.80;56.10
68813;DHT22;55808;48.112;11.552;2022-10-16T14:04:55;25.50;54.70
68813;DHT22;55808;48.112;11.552;2022-10-16T14:07:28;25.40;55.90
68813;DHT22;55808;48.112;11.552;2022-10-16T14:09:54;25.30;54.90
68813;DHT22;55808;48.112;11.552;2022-10-16T14:12:21;25.00;55.10
68813;DHT22;55808;48.112;11.552;2022-10-16T14:14:50;25.10;56.70
68813;DHT22;55808;48.112;11.552;2022-10-16T14:17:20;25.10;54.40
68813;DHT22;55808;48.112;11.552;2022-10-16T14:19:48;24.90;56.40
68813;DHT22;55808;48.112;11.552;2022-10-16T14:22:27;24.90;58.90
68813;DHT22;55808;48.112;11.552;2022-10-16T14:25:02;25.20;55.70
68813;DHT22;55808;48.112;11.552;2022-10-16T14:27:38;25.40;57.00
68813;DHT22;55808;48.112;11.552;2022-10-16T14:30:20;25.60;56.90
68813;DHT22;55808;48.112;11.552;2022-10-16T14:33:04;25.50;58.50
68813;DHT22;55808;48.112;11.552;2022-10-16T14:35:33;25.50;58.50
68813;DHT22;55808;48.112;11.552;2022-10-16T14:38:01;25.80;55.00
68813;DHT22;55808;48.112;11.552;2022-10-16T14:40:30;26.30;54.70
68813;DHT22;55808;48.112;11.552;2022-10-16T14:42:56;25.80;55.50
68813;DHT22;55808;48.112;11.552;2022-10-16T14:45:26;25.60;56.50
68813;DHT22;55808;48.112;11.552;2022-10-16T14:47:54;25.70;55.20
68813;DHT22;55808;48.112;11.552;2022-10-16T14:50:21;25.40;55.30
68813;DHT22;55808;48.112;11.552;2022-10-16T14:52:47;24.90;55.20
68813;DHT22;55808;48.112;11.552;2022-10-16T14:55:17;24.40;58.20
68813;DHT22;55808;48.112;11.552;2022-10-16T14:57:44;24.20;59.10
68813;DHT22;55808;48.112;11.552;2022-10-16T15:00:19;23.90;58.50
68813;DHT22;55808;48.112;11.552;2022-10-16T15:02:47;23.70;59.20
68813;DHT22;55808;48.112;11.552;2022-10-16T15:05:24;23.40;60.50
68813;DHT22;55808;48.112;11.552;2022-10-16T15:07:51;23.20;60.70
68813;DHT22;55808;48.112;11.552;2022-10-16T15:10:19;23.00;61.50
68813;DHT22;55808;48.112;11.552;2022-10-16T15:12:46;22.90;61.80
68813;DHT22;55808;48.112;11.552;2022-10-16T15:17:56;22.80;65.00
68813;DHT22;55808;48.112;11.552;2022-10-16T15:20:32;22.70;62.80
68813;DHT22;55808;48.112;11.552;2022-10-16T15:23:03;22.70;62.20
68813;DHT22;55808;48.112;11.552;2022-10-16T15:25:33;22.60;64.50
68813;DHT22;55808;48.112;11.552;2022-10-16T15:28:00;22.40;63.10
68813;DHT22;55808;48.112;11.552;2022-10-16T15:30:26;22.40;64.50
68813;DHT22;55808;48.112;11.552;2022-10-16T15:32:52;22.40;64.00
68813;DHT22;55808;48.112;11.552;2022-10-16T15:35:17;22.30;64.30
68813;DHT22;55808;48.112;11.552;2022-10-16T15:37:43;22.20;65.60
68813;DHT22;55808;48.112;11.552;2022-10-16T15:40:10;22.10;65.30
68813;DHT22;55808;48.112;11.552;2022-10-16T15:42:36;21.90;65.30
68813;DHT22;55808;48.112;11.552;2022-10-16T15:45:02;21.70;68.30
68813;DHT22;55808;48.112;11.552;2022-10-16T15:47:29;21.60;66.70
68813;DHT22;55808;48.112;11.552;2022-10-16T15:49:55;21.50;68.10
68813;DHT22;55808;48.112;11.552;2022-10-16T15:52:20;21.50;67.70
68813;DHT22;55808;48.112;11.552;2022-10-16T15:54:46;21.40;68.40
68813;DHT22;55808;48.112;11.552;2022-10-16T15:57:12;21.30;68.90
68813;DHT22;55808;48.112;11.552;2022-10-16T15:59:37;21.20;69.30
68813;DHT22;55808;48.112;11.552;2022-10-16T16:02:03;21.10;70.10
68813;DHT22;55808;48.112;11.552;2022-10-16T16:04:31;21.00;70.10
68813;DHT22;55808;48.112;11.552;2022-10-16T16:06:57;20.90;71.10
68813;DHT22;55808;48.112;11.552;2022-10-16T16:09:23;20.80;71.00
68813;DHT22;55808;48.112;11.552;2022-10-16T16:11:49;20.70;72.90
68813;DHT22;55808;48.112;11.552;2022-10-16T16:14:16;20.50;76.50
68813;DHT22;55808;48.112;11.552;2022-10-16T16:16:42;20.30;74.90
68813;DHT22;55808;48.112;11.552;2022-10-16T16:19:08;20.20;76.80
68813;DHT22;55808;48.112;11.552;2022-10-16T16:21:35;20.10;76.00
68813;DHT22;55808;48.112;11.552;2022-10-16T16:24:00;20.10;74.70
68813;DHT22;55808;48.112;11.552;2022-10-16T16:26:33;20.10;74.50
68813;DHT22;55808;48.112;11.552;2022-10-16T16:29:02;20.10;75.40
68813;DHT22;55808;48.112;11.552;2022-10-16T16:31:30;20.00;75.50
68813;DHT22;55808;48.112;11.552;2022-10-16T16:33:56;19.90;75.40
68813;DHT22;55808;48.112;11.552;2022-10-16T16:36:23;19.90;76.00
68813;DHT22;55808;48.112;11.552;2022-10-16T16:38:49;19.80;77.00
68813;DHT22;55808;48.112;11.552;2022-10-16T16:41:19;19.70;77.30
68813;DHT22;55808;48.112;11.552;2022-10-16T16:43:45;19.50;80.50
68813;DHT22;55808;48.112;11.552;2022-10-16T16:46:13;19.40;78.70
68813;DHT22;55808;48.112;11.552;2022-10-16T16:48:44;19.40;79.10
68813;DHT22;55808;48.112;11.552;2022-10-16T16:51:14;19.30;80.40
68813;DHT22;55808;48.112;11.552;2022-10-16T16:53:46;19.20;83.40
68813;DHT22;55808;48.112;11.552;2022-10-16T16:56:12;19.10;85.10
68813;DHT22;55808;48.112;11.552;2022-10-16T16:58:38;19.00;84.20
68813;DHT22;55808;48.112;11.552;2022-10-16T17:01:05;18.80;85.50
68813;DHT22;55808;48.112;11.552;2022-10-16T17:03:32;18.70;85.60
68813;DHT22;55808;48.112;11.552;2022-10-16T17:06:06;18.70;87.80
68813;DHT22;55808;48.112;11.552;2022-10-16T17:08:36;18.60;86.80
68813;DHT22;55808;48.112;11.552;2022-10-16T17:11:02;18.50;87.00
68813;DHT22;55808;48.112;11.552;2022-10-16T17:13:32;18.50;89.50
68813;DHT22;55808;48.112;11.552;2022-10-16T17:16:05;18.40;88.60
68813;DHT22;55808;48.112;11.552;2022-10-16T17:18:32;18.30;89.50
68813;DHT22;55808;48.112;11.552;2022-10-16T17:21:03;18.30;90.50
68813;DHT22;55808;48.112;11.552;2022-10-16T17:23:30;18.20;90.80
68813;DHT22;55808;48.112;11.552;2022-10-16T17:25:56;18.10;90.90
68813;DHT22;55808;48.112;11.552;2022-10-16T17:28:22;18.00;91.00
68813;DHT22;55808;48.112;11.552;2022-10-16T17:30:48;18.00;91.40
68813;DHT22;55808;48.112;11.552;2022-10-16T17:33:13;17.90;91.80
68813;DHT22;55808;48.112;11.552;2022-10-16T17:35:44;17.80;91.90
68813;DHT22;55808;48.112;11.552;2022-10-16T17:38:11;17.70;92.60
68813;DHT22;55808;48.112;11.552;2022-10-16T17:40:38;17.70;92.70
68813;DHT22;55808;48.112;11.552;2022-10-16T17:43:05;17.60;93.30
68813;DHT22;55808;48.112;11.552;2022-10-16T17:45:31;17.60;93.10